Time;durP1;ratioP1;P1;durP2;ratioP2;P2;SDS_P1;SDS_P2;PMS_P1;PMS_P2;Temp;Humidity;BMP_temperature;BMP_pressure;BME280_temperature;BME280_humidity;BME280_pressure;Samples;Min_cycle;Max_cycle;Signal;HPM_P1;HPM_P2
2023/06/24 00:00:01;;;;;;;3.40;3.10;;;18.30;99.90;;;;;;5094523;28;20239;-61
2023/06/24 00:02:27;;;;;;;4.63;3.45;;;18.20;99.90;;;;;;5094240;28;20719;-61
2023/06/24 00:04:54;;;;;;;4.25;3.22;;;18.20;99.90;;;;;;5094983;28;20208;-60
2023/06/24 00:07:21;;;;;;;3.75;3.42;;;18.20;99.90;;;;;;5094178;28;20227;-60
2023/06/24 00:09:48;;;;;;;3.40;3.05;;;18.10;99.90;;;;;;5094300;28;20236;-61
2023/06/24 00:12:18;;;;;;;7.38;3.67;;;18.10;99.90;;;;;;5094535;28;20208;-60
2023/06/24 00:14:45;;;;;;;3.88;3.45;;;18.10;99.90;;;;;;5094276;28;20208;-62
2023/06/24 00:17:12;;;;;;;3.97;3.50;;;18.20;99.90;;;;;;5094838;28;20208;-60
2023/06/24 00:19:39;;;;;;;4.57;2.88;;;18.10;99.90;;;;;;5096189;28;20228;-60
2023/06/24 00:22:06;;;;;;;4.28;3.33;;;18.10;99.90;;;;;;5094631;28;20204;-61
2023/06/24 00:24:32;;;;;;;4.60;3.83;;;18.00;99.90;;;;;;5094453;28;20207;-61
2023/06/24 00:26:59;;;;;;;3.60;3.30;;;18.10;99.90;;;;;;5095869;28;20663;-60
2023/06/24 00:29:27;;;;;;;5.22;3.45;;;18.00;99.90;;;;;;5094039;28;20262;-60
2023/06/24 00:31:54;;;;;;;5.05;3.78;;;18.10;99.90;;;;;;5094019;28;20647;-59
2023/06/24 00:34:20;;;;;;;4.07;3.50;;;17.90;99.90;;;;;;5093892;28;20310;-60
2023/06/24 00:36:47;;;;;;;3.80;3.10;;;17.80;99.90;;;;;;5093714;28;20236;-59
2023/06/24 00:39:14;;;;;;;3.75;3.30;;;17.70;99.90;;;;;;5093462;28;20307;-59
2023/06/24 00:41:41;;;;;;;4.72;3.78;;;17.40;99.90;;;;;;5092528;28;20681;-60
2023/06/24 00:44:07;;;;;;;4.47;3.28;;;17.30;99.90;;;;;;5093709;28;20200;-60
2023/06/24 00:46:36;;;;;;;4.93;3.58;;;17.20;99.90;;;;;;5093424;28;20566;-60
2023/06/24 00:49:03;;;;;;;3.55;3.05;;;17.30;99.90;;;;;;5093213;28;20691;-61
2023/06/24 00:51:31;;;;;;;3.20;2.90;;;17.30;99.90;;;;;;5093342;28;20617;-60
2023/06/24 00:53:58;;;;;;;4.90;3.20;;;17.20;99.90;;;;;;5093427;28;20208;-60
2023/06/24 00:56:31;;;;;;;3.25;2.95;;;17.20;99.90;;;;;;5093175;28;20730;-60
2023/06/24 00:59:01;;;;;;;3.63;3.33;;;17.10;99.90;;;;;;5092910;28;20672;-60
2023/06/24 01:01:31;;;;;;;3.47;3.15;;;16.90;99.90;;;;;;5093732;28;20200;-60
2023/06/24 01:04:00;;;;;;;3.72;3.30;;;16.80;99.90;;;;;;5093450;28;20291;-59
2023/06/24 01:06:28;;;;;;;4.15;3.55;;;16.80;99.90;;;;;;5093358;28;20207;-59
2023/06/24 01:08:56;;;;;;;4.90;3.70;;;16.80;99.90;;;;;;5092948;28;20284;-60
2023/06/24 01:11:23;;;;;;;3.97;3.33;;;16.80;99.90;;;;;;5093758;28;20204;-59
2023/06/24 01:13:49;;;;;;;6.30;3.80;;;16.80;99.90;;;;;;5092794;28;20662;-60
2023/06/24 01:16:24;;;;;;;3.92;3.47;;;16.80;99.90;;;;;;5093007;28;20208;-61
2023/06/24 01:18:58;;;;;;;5.75;4.38;;;16.80;99.90;;;;;;5092934;28;20694;-60
2023/06/24 01:21:37;;;;;;;4.60;4.13;;;16.80;99.90;;;;;;5092988;28;20273;-60
2023/06/24 01:24:42;;;;;;;5.38;3.65;;;16.80;99.90;;;;;;5092771;28;20687;-60
2023/06/24 01:27:27;;;;;;;4.00;3.45;;;16.80;99.90;;;;;;5092561;28;20204;-59
2023/06/24 01:30:18;;;;;;;3.83;3.38;;;16.80;99.90;;;;;;5092483;28;20365;-60
2023/06/24 01:32:51;;;;;;;4.53;3.75;;;16.70;99.90;;;;;;5092821;28;20204;-60
2023/06/24 01:35:22;;;;;;;4.00;3.60;;;16.80;99.90;;;;;;5092777;28;20200;-60
2023/06/24 01:37:52;;;;;;;5.53;3.40;;;16.70;99.90;;;;;;5092475;28;20211;-59
2023/06/24 01:40:24;;;;;;;3.60;3.15;;;16.70;99.90;;;;;;5092339;28;20239;-59
2023/06/24 01:42:51;;;;;;;3.92;3.00;;;16.70;99.90;;;;;;5092691;28;20204;-59
2023/06/24 01:45:23;;;;;;;4.20;3.78;;;16.70;99.90;;;;;;5092579;28;20212;-59
2023/06/24 01:47:59;;;;;;;6.88;3.53;;;16.70;99.90;;;;;;5092139;28;20578;-59
2023/06/24 01:50:27;;;;;;;3.85;3.50;;;16.70;99.90;;;;;;5092150;28;20634;-61
2023/06/24 01:52:56;;;;;;;4.30;3.60;;;16.70;99.90;;;;;;5092408;28;20211;-59
2023/06/24 01:55:25;;;;;;;7.00;3.30;;;16.70;99.90;;;;;;5092150;28;20208;-59
2023/06/24 01:57:53;;;;;;;3.95;3.30;;;16.80;99.90;;;;;;5092004;28;20211;-58
2023/06/24 02:00:22;;;;;;;5.43;3.50;;;16.70;99.90;;;;;;5092131;28;20221;-59
2023/06/24 02:02:52;;;;;;;3.55;2.92;;;16.70;99.90;;;;;;5092575;28;20215;-58
2023/06/24 02:05:20;;;;;;;4.07;3.65;;;16.70;99.90;;;;;;5092062;28;20211;-60
2023/06/24 02:07:49;;;;;;;3.95;3.50;;;16.60;99.90;;;;;;5091889;28;20208;-61
2023/06/24 02:10:16;;;;;;;4.97;3.40;;;16.60;99.90;;;;;;5091769;28;20235;-59
2023/06/24 02:12:45;;;;;;;3.90;3.38;;;16.60;99.90;;;;;;5092018;28;20201;-59
2023/06/24 02:15:12;;;;;;;3.70;3.40;;;16.60;99.90;;;;;;5091997;28;20309;-59
2023/06/24 02:17:40;;;;;;;5.75;3.85;;;16.60;99.90;;;;;;5091401;28;20208;-60
2023/06/24 02:20:11;;;;;;;5.18;4.53;;;16.50;99.90;;;;;;5091425;28;20255;-60
2023/06/24 02:22:39;;;;;;;4.18;3.55;;;16.50;99.90;;;;;;5091834;28;20203;-60
2023/06/24 02:25:08;;;;;;;4.20;3.60;;;16.50;99.90;;;;;;5091785;28;20204;-60
2023/06/24 02:27:36;;;;;;;4.77;3.73;;;16.50;99.90;;;;;;5091381;28;20210;-60
2023/06/24 02:30:03;;;;;;;6.03;3.90;;;16.50;99.90;;;;;;5091758;28;20648;-60
2023/06/24 02:32:30;;;;;;;3.83;3.38;;;16.40;99.90;;;;;;5091397;28;20208;-59
2023/06/24 02:34:58;;;;;;;3.88;3.47;;;16.40;99.90;;;;;;5091692;28;20277;-59
2023/06/24 02:37:26;;;;;;;4.20;3.75;;;16.40;99.90;;;;;;5091108;28;20670;-58
2023/06/24 02:39:53;;;;;;;6.18;3.58;;;16.40;99.90;;;;;;5091442;28;20224;-58
2023/06/24 02:42:19;;;;;;;3.80;3.33;;;16.30;99.90;;;;;;5091193;28;20200;-60
2023/06/24 02:44:46;;;;;;;4.97;3.30;;;16.40;99.90;;;;;;5091255;28;20295;-58
2023/06/24 02:47:17;;;;;;;3.75;3.40;;;16.20;99.90;;;;;;5091192;28;20204;-59
2023/06/24 02:49:47;;;;;;;4.13;3.72;;;16.20;99.90;;;;;;5091126;28;20220;-59
2023/06/24 02:52:14;;;;;;;4.20;3.65;;;16.30;99.90;;;;;;5091530;28;20291;-59
2023/06/24 02:54:43;;;;;;;3.95;3.55;;;16.20;99.90;;;;;;5091111;28;20313;-59
2023/06/24 02:57:10;;;;;;;3.80;3.40;;;16.20;99.90;;;;;;5090783;28;20215;-58
2023/06/24 02:59:37;;;;;;;4.18;3.78;;;16.10;99.90;;;;;;5091096;28;20726;-58
2023/06/24 03:02:05;;;;;;;4.03;3.50;;;16.00;99.90;;;;;;5091109;28;20207;-59
2023/06/24 03:04:32;;;;;;;5.00;3.67;;;15.90;99.90;;;;;;5090648;28;20303;-59
2023/06/24 03:07:00;;;;;;;4.28;3.85;;;15.80;99.90;;;;;;5090705;28;20281;-59
2023/06/24 03:09:27;;;;;;;5.00;3.95;;;15.80;99.90;;;;;;5090698;28;20323;-59
2023/06/24 03:11:55;;;;;;;5.57;4.10;;;15.80;99.90;;;;;;5090777;28;20575;-60
2023/06/24 03:14:22;;;;;;;4.57;4.17;;;15.80;99.90;;;;;;5090974;28;20208;-60
2023/06/24 03:16:49;;;;;;;4.85;4.30;;;15.80;99.90;;;;;;5090598;28;20710;-59
2023/06/24 03:19:16;;;;;;;7.35;4.40;;;15.70;99.90;;;;;;5090791;28;20596;-59
2023/06/24 03:21:42;;;;;;;4.83;4.33;;;15.60;99.90;;;;;;5090751;28;20246;-59
2023/06/24 03:24:09;;;;;;;4.57;3.87;;;15.50;99.90;;;;;;5090734;28;20258;-60
2023/06/24 03:26:38;;;;;;;4.90;4.40;;;15.50;99.90;;;;;;5090597;28;20219;-59
2023/06/24 03:29:07;;;;;;;4.27;3.87;;;15.50;99.90;;;;;;5091080;28;20208;-58
2023/06/24 03:31:33;;;;;;;4.63;3.90;;;15.40;99.90;;;;;;5091919;28;20273;-60
2023/06/24 03:34:01;;;;;;;4.53;3.90;;;15.50;99.90;;;;;;5092383;28;20204;-60
2023/06/24 03:36:27;;;;;;;5.80;4.13;;;15.40;99.90;;;;;;5091854;28;20667;-61
2023/06/24 03:38:54;;;;;;;4.35;3.65;;;15.40;99.90;;;;;;5091586;28;20216;-60
2023/06/24 03:41:21;;;;;;;4.00;3.60;;;15.50;99.90;;;;;;5090815;28;20348;-61
2023/06/24 03:43:48;;;;;;;4.13;3.70;;;15.50;99.90;;;;;;5090593;28;20210;-60
2023/06/24 03:46:16;;;;;;;4.05;3.65;;;15.50;99.90;;;;;;5090423;28;20209;-60
2023/06/24 03:48:43;;;;;;;5.60;3.95;;;15.60;99.90;;;;;;5090674;28;20200;-58
2023/06/24 03:51:10;;;;;;;4.65;3.60;;;15.60;99.90;;;;;;5090640;28;20224;-58
2023/06/24 03:53:37;;;;;;;3.92;3.53;;;15.60;99.90;;;;;;5090372;28;20201;-59
2023/06/24 03:56:04;;;;;;;4.82;3.80;;;15.70;99.90;;;;;;5090692;28;20212;-60
2023/06/24 03:58:30;;;;;;;4.57;3.90;;;15.70;99.90;;;;;;5090861;28;20213;-63
2023/06/24 04:01:00;;;;;;;6.03;3.90;;;15.80;99.90;;;;;;5090294;28;20235;-60
2023/06/24 04:03:28;;;;;;;4.15;3.60;;;15.90;99.90;;;;;;5090681;28;20265;-60
2023/06/24 04:05:56;;;;;;;4.83;3.57;;;15.90;99.90;;;;;;5090319;28;20233;-62
2023/06/24 04:08:25;;;;;;;4.00;3.60;;;16.10;99.90;;;;;;5090892;28;20269;-60
2023/06/24 04:10:51;;;;;;;4.57;4.00;;;16.20;99.90;;;;;;5090531;28;20224;-61
2023/06/24 04:13:18;;;;;;;4.22;3.47;;;16.30;99.90;;;;;;5090488;28;20230;-60
2023/06/24 04:15:45;;;;;;;5.55;4.10;;;16.40;99.90;;;;;;5090242;28;20356;-61
2023/06/24 04:18:11;;;;;;;4.35;3.90;;;16.50;99.90;;;;;;5092837;28;20377;-61
2023/06/24 04:20:39;;;;;;;4.05;3.50;;;16.60;99.90;;;;;;5093745;28;20220;-61
2023/06/24 04:23:09;;;;;;;5.28;3.33;;;16.70;99.90;;;;;;5094276;28;20216;-63
2023/06/24 04:25:35;;;;;;;4.30;3.50;;;16.70;99.90;;;;;;5093725;28;20558;-62
2023/06/24 04:28:02;;;;;;;5.72;3.53;;;16.70;99.90;;;;;;5093599;28;20219;-60
2023/06/24 04:30:29;;;;;;;4.07;3.50;;;16.80;99.90;;;;;;5093816;28;20250;-60
2023/06/24 04:32:55;;;;;;;4.68;3.42;;;16.90;99.90;;;;;;5093719;28;20625;-60
2023/06/24 04:35:22;;;;;;;4.57;3.20;;;16.90;99.90;;;;;;5093629;28;20216;-62
2023/06/24 04:37:50;;;;;;;4.50;3.95;;;17.10;99.90;;;;;;5093766;28;20255;-61
2023/06/24 04:40:19;;;;;;;5.68;3.75;;;17.20;99.90;;;;;;5093537;28;20285;-60
2023/06/24 04:42:46;;;;;;;4.18;3.78;;;17.40;99.90;;;;;;5093664;28;20257;-61
2023/06/24 04:45:13;;;;;;;4.53;3.30;;;17.60;99.90;;;;;;5093964;28;20208;-60
2023/06/24 04:47:39;;;;;;;3.92;3.53;;;18.10;99.90;;;;;;5093249;28;20209;-61
2023/06/24 04:50:09;;;;;;;3.55;3.08;;;19.00;99.90;;;;;;5093524;28;20687;-61
2023/06/24 04:52:36;;;;;;;3.97;3.45;;;20.40;99.90;;;;;;5093482;28;20201;-62
2023/06/24 04:55:04;;;;;;;3.55;3.25;;;21.70;99.90;;;;;;5093595;28;20208;-62
2023/06/24 04:57:34;;;;;;;4.35;3.40;;;22.60;99.90;;;;;;5092919;28;20672;-61
2023/06/24 05:00:00;;;;;;;4.60;3.20;;;23.10;99.90;;;;;;5093212;28;20649;-62
2023/06/24 05:02:28;;;;;;;4.78;3.30;;;23.50;99.90;;;;;;5093013;28;20228;-61
2023/06/24 05:04:54;;;;;;;3.90;3.15;;;23.70;99.90;;;;;;5093427;28;20204;-62
2023/06/24 05:07:21;;;;;;;4.68;3.72;;;23.70;99.90;;;;;;5093144;28;20588;-62
2023/06/24 05:09:49;;;;;;;7.40;3.72;;;23.70;99.90;;;;;;5093170;28;20228;-62
2023/06/24 05:12:17;;;;;;;3.88;3.03;;;23.90;99.90;;;;;;5093105;28;20227;-61
2023/06/24 05:14:43;;;;;;;4.57;3.17;;;24.30;99.90;;;;;;5093380;28;20208;-61
2023/06/24 05:17:10;;;;;;;4.57;3.30;;;24.80;99.90;;;;;;5093088;28;20295;-60
2023/06/24 05:19:37;;;;;;;3.67;3.25;;;25.40;99.90;;;;;;5093256;28;20323;-60
2023/06/24 05:22:04;;;;;;;3.95;2.97;;;26.00;99.90;;;;;;5093076;28;20224;-60
2023/06/24 05:24:31;;;;;;;3.30;3.00;;;26.60;99.00;;;;;;5092848;28;20273;-60
2023/06/24 05:27:04;;;;;;;3.67;3.00;;;27.60;96.80;;;;;;5092612;28;20358;-61
2023/06/24 05:29:32;;;;;;;3.80;3.13;;;28.70;94.40;;;;;;5092435;28;20232;-60
2023/06/24 05:31:59;;;;;;;3.60;3.00;;;29.80;91.30;;;;;;5092924;28;20197;-59
2023/06/24 05:34:26;;;;;;;3.17;2.70;;;30.40;88.30;;;;;;5092811;28;20241;-60
2023/06/24 05:36:53;;;;;;;3.50;2.83;;;31.10;85.00;;;;;;5093002;28;20258;-59
2023/06/24 05:39:20;;;;;;;3.47;2.63;;;31.60;81.90;;;;;;5092469;28;20228;-59
2023/06/24 05:41:48;;;;;;;3.50;2.80;;;32.10;79.30;;;;;;5092360;28;20220;-60
2023/06/24 05:44:17;;;;;;;3.53;3.20;;;32.80;75.10;;;;;;5092763;28;20291;-61
2023/06/24 05:46:46;;;;;;;3.35;2.85;;;33.30;73.00;;;;;;5092084;28;20649;-61
2023/06/24 05:49:12;;;;;;;4.75;3.80;;;33.90;70.60;;;;;;5092306;28;20299;-61
2023/06/24 05:51:39;;;;;;;4.03;3.10;;;34.60;69.00;;;;;;5092427;28;20208;-61
2023/06/24 05:54:07;;;;;;;4.05;3.65;;;35.30;65.70;;;;;;5092337;28;20211;-61
2023/06/24 05:56:36;;;;;;;3.47;3.17;;;36.10;62.00;;;;;;5092029;28;20240;-61
2023/06/24 05:59:02;;;;;;;3.35;3.05;;;36.70;60.00;;;;;;5092527;28;20595;-61
2023/06/24 06:01:29;;;;;;;3.40;2.72;;;37.00;58.10;;;;;;5092278;28;20231;-61
2023/06/24 06:03:57;;;;;;;3.10;2.80;;;37.40;56.90;;;;;;5092132;28;20272;-60
2023/06/24 06:06:24;;;;;;;3.20;2.88;;;37.80;55.80;;;;;;5092008;28;20208;-61
2023/06/24 06:08:51;;;;;;;3.88;3.00;;;38.20;54.40;;;;;;5092232;28;20208;-61
2023/06/24 06:11:17;;;;;;;4.35;2.85;;;38.40;53.50;;;;;;5091992;28;20240;-61
2023/06/24 06:13:44;;;;;;;3.50;2.70;;;38.60;53.00;;;;;;5092170;28;20204;-60
2023/06/24 06:16:11;;;;;;;4.55;3.00;;;39.00;52.20;;;;;;5091817;28;20204;-61
2023/06/24 06:18:37;;;;;;;5.97;4.82;;;39.40;51.00;;;;;;5092010;28;20208;-60
2023/06/24 06:21:05;;;;;;;3.97;3.00;;;39.80;50.30;;;;;;5091829;28;20307;-59
2023/06/24 06:23:32;;;;;;;5.70;5.10;;;40.40;49.30;;;;;;5091822;28;20711;-60
2023/06/24 06:25:59;;;;;;;3.38;2.78;;;41.00;48.60;;;;;;5091562;28;20550;-60
2023/06/24 06:28:25;;;;;;;4.53;3.30;;;41.60;46.80;;;;;;5092248;28;20615;-60
2023/06/24 06:30:52;;;;;;;3.03;2.72;;;42.10;45.20;;;;;;5091861;28;20691;-60
2023/06/24 06:33:19;;;;;;;6.40;3.50;;;42.30;45.00;;;;;;5092210;28;20211;-60
2023/06/24 06:35:45;;;;;;;4.60;3.28;;;42.50;44.60;;;;;;5093108;28;20728;-63
2023/06/24 06:38:14;;;;;;;3.35;2.78;;;42.60;44.10;;;;;;5092973;28;20215;-60
2023/06/24 06:40:41;;;;;;;4.35;3.40;;;41.70;44.30;;;;;;5092385;28;20584;-60
2023/06/24 06:43:07;;;;;;;4.15;3.60;;;41.30;45.50;;;;;;5092487;28;20314;-61
2023/06/24 06:45:34;;;;;;;3.45;3.15;;;41.80;43.80;;;;;;5092555;28;20587;-60
2023/06/24 06:48:01;;;;;;;3.65;2.50;;;42.40;42.30;;;;;;5092161;28;20211;-60
2023/06/24 06:50:28;;;;;;;5.18;2.65;;;42.80;41.20;;;;;;5092940;28;20223;-62
2023/06/24 06:52:54;;;;;;;3.20;2.80;;;43.40;42.00;;;;;;5092652;28;20199;-61
2023/06/24 06:55:22;;;;;;;3.05;2.72;;;44.00;41.50;;;;;;5093208;28;20237;-60
2023/06/24 06:57:49;;;;;;;4.07;2.88;;;43.80;40.90;;;;;;5091337;28;20203;-60
2023/06/24 07:00:17;;;;;;;2.72;2.50;;;43.70;41.30;;;;;;5091387;28;20227;-60
2023/06/24 07:02:44;;;;;;;3.28;2.60;;;43.90;40.70;;;;;;5091230;28;20223;-61
2023/06/24 07:05:11;;;;;;;3.90;2.65;;;43.80;40.00;;;;;;5091327;28;20204;-61
2023/06/24 07:07:38;;;;;;;3.15;2.85;;;42.80;41.00;;;;;;5091341;28;20394;-60
2023/06/24 07:10:05;;;;;;;4.15;2.47;;;42.60;41.10;;;;;;5109688;22;20232;-57
2023/06/24 07:12:33;;;;;;;2.60;2.40;;;42.90;41.00;;;;;;5079434;28;20341;-57
2023/06/24 07:15:00;;;;;;;3.95;2.38;;;43.40;39.50;;;;;;5071195;28;20250;-58
2023/06/24 07:17:26;;;;;;;3.22;2.30;;;44.10;37.90;;;;;;5070850;28;20215;-56
2023/06/24 07:19:53;;;;;;;3.60;2.63;;;44.70;37.20;;;;;;5066910;28;20229;-57
2023/06/24 07:22:20;;;;;;;3.00;2.70;;;45.30;37.10;;;;;;5051051;28;20232;-58
2023/06/24 07:24:47;;;;;;;3.53;3.05;;;45.60;37.40;;;;;;5051277;28;20201;-58
2023/06/24 07:27:13;;;;;;;2.53;2.30;;;46.00;36.10;;;;;;5051156;28;20587;-57
2023/06/24 07:29:42;;;;;;;2.88;2.28;;;46.40;35.30;;;;;;5051233;28;20208;-59
2023/06/24 07:32:09;;;;;;;3.63;2.60;;;46.40;34.90;;;;;;5051285;28;20723;-57
2023/06/24 07:34:36;;;;;;;2.60;2.40;;;46.40;34.90;;;;;;5051172;28;20209;-57
2023/06/24 07:37:03;;;;;;;2.80;2.13;;;46.20;35.10;;;;;;5051128;28;20205;-58
2023/06/24 07:39:29;;;;;;;5.22;2.30;;;46.50;34.30;;;;;;5051061;28;20239;-57
2023/06/24 07:41:56;;;;;;;5.18;2.30;;;47.20;33.90;;;;;;5050893;28;20244;-58
2023/06/24 07:44:23;;;;;;;3.13;2.47;;;47.70;33.40;;;;;;5050849;28;20216;-58
2023/06/24 07:46:51;;;;;;;2.67;2.40;;;47.70;33.10;;;;;;5050431;28;20672;-56
2023/06/24 07:49:18;;;;;;;3.60;2.15;;;47.70;32.50;;;;;;5050981;28;20295;-57
2023/06/24 07:51:45;;;;;;;4.07;2.40;;;47.40;32.90;;;;;;5052609;28;20708;-58
2023/06/24 07:54:12;;;;;;;3.40;2.22;;;47.30;32.90;;;;;;5054937;28;20243;-57
2023/06/24 07:56:39;;;;;;;2.35;2.08;;;47.50;32.30;;;;;;5054545;28;20201;-59
2023/06/24 07:59:06;;;;;;;5.07;2.10;;;47.80;32.20;;;;;;5054879;28;20201;-58
2023/06/24 08:01:32;;;;;;;2.22;2.03;;;48.20;31.90;;;;;;5054397;28;20225;-58
2023/06/24 08:04:00;;;;;;;4.55;2.40;;;48.70;31.50;;;;;;5054921;28;20205;-58
2023/06/24 08:06:28;;;;;;;2.90;2.40;;;48.90;31.30;;;;;;5054301;28;20602;-57
2023/06/24 08:08:54;;;;;;;3.65;2.40;;;49.00;31.30;;;;;;5054543;28;20295;-58
2023/06/24 08:11:21;;;;;;;2.83;2.10;;;49.20;31.00;;;;;;5054402;28;20244;-58
2023/06/24 08:13:48;;;;;;;2.15;2.00;;;49.60;30.60;;;;;;5054127;28;20271;-57
2023/06/24 08:16:18;;;;;;;2.72;2.50;;;49.50;30.70;;;;;;5054392;28;20209;-59
2023/06/24 08:18:44;;;;;;;3.38;2.30;;;48.70;30.60;;;;;;5054943;28;20208;-60
2023/06/24 08:21:12;;;;;;;2.85;2.45;;;47.50;31.80;;;;;;5054443;28;20259;-58
2023/06/24 08:23:40;;;;;;;2.67;2.30;;;46.80;32.30;;;;;;5054270;28;20229;-58
2023/06/24 08:26:08;;;;;;;3.22;2.25;;;46.90;32.40;;;;;;5054054;28;20205;-58
2023/06/24 08:28:35;;;;;;;4.93;2.60;;;47.10;32.30;;;;;;5054097;28;20267;-58
2023/06/24 08:31:01;;;;;;;2.30;2.10;;;47.10;31.90;;;;;;5054118;28;20236;-59
2023/06/24 08:33:28;;;;;;;2.40;2.05;;;46.60;32.20;;;;;;5053957;28;20201;-57
2023/06/24 08:35:55;;;;;;;3.55;2.17;;;46.10;32.90;;;;;;5053766;28;20197;-58
2023/06/24 08:38:23;;;;;;;3.85;2.40;;;46.10;32.60;;;;;;5053807;28;20701;-57
2023/06/24 08:40:50;;;;;;;2.47;2.28;;;46.40;32.40;;;;;;5053836;28;20716;-58
2023/06/24 08:43:17;;;;;;;3.00;2.38;;;45.80;32.60;;;;;;5053797;28;20284;-58
2023/06/24 08:45:44;;;;;;;2.50;2.30;;;44.20;34.20;;;;;;5053655;28;20695;-58
2023/06/24 08:48:13;;;;;;;3.15;2.63;;;41.70;36.90;;;;;;5053840;28;20205;-57
2023/06/24 08:50:44;;;;;;;3.47;2.70;;;39.60;38.70;;;;;;5053843;28;20578;-57
2023/06/24 08:53:12;;;;;;;2.70;2.50;;;39.00;39.20;;;;;;5053955;28;20210;-58
2023/06/24 08:55:43;;;;;;;2.90;2.47;;;39.00;39.20;;;;;;5053788;28;20212;-57
2023/06/24 08:58:10;;;;;;;2.53;2.33;;;38.10;40.00;;;;;;5053704;28;20209;-58
2023/06/24 09:00:37;;;;;;;2.70;2.40;;;36.60;41.70;;;;;;5053689;28;20232;-58
2023/06/24 09:03:04;;;;;;;4.35;2.88;;;35.30;43.30;;;;;;5052994;28;20696;-59
2023/06/24 09:05:30;;;;;;;2.97;2.70;;;34.10;45.30;;;;;;5053588;28;20213;-58
2023/06/24 09:07:57;;;;;;;3.53;2.80;;;33.10;45.70;;;;;;5053054;28;20229;-57
2023/06/24 09:10:32;;;;;;;4.20;2.80;;;32.30;47.30;;;;;;5053416;28;20233;-58
2023/06/24 09:13:00;;;;;;;3.00;2.70;;;31.40;49.10;;;;;;5053246;28;20739;-60
2023/06/24 09:15:31;;;;;;;3.20;2.90;;;30.70;50.30;;;;;;5053377;28;20279;-59
2023/06/24 09:17:58;;;;;;;3.42;2.90;;;30.00;51.10;;;;;;5053201;28;20662;-59
2023/06/24 09:20:25;;;;;;;5.78;2.78;;;29.60;52.70;;;;;;5053274;28;20221;-58
2023/06/24 09:22:51;;;;;;;3.25;2.60;;;29.40;52.50;;;;;;5053342;28;20257;-58
2023/06/24 09:25:19;;;;;;;3.45;3.15;;;29.10;53.20;;;;;;5053407;28;20296;-57
2023/06/24 09:27:49;;;;;;;3.05;2.75;;;28.90;54.10;;;;;;5053050;28;20202;-58
2023/06/24 09:30:21;;;;;;;3.05;2.72;;;28.70;54.30;;;;;;5053281;28;20252;-56
2023/06/24 09:32:48;;;;;;;4.43;2.67;;;28.50;55.10;;;;;;5052974;28;20205;-57
2023/06/24 09:35:15;;;;;;;3.42;2.97;;;28.30;55.50;;;;;;5052871;28;20740;-58
2023/06/24 09:37:42;;;;;;;3.53;2.78;;;28.00;56.20;;;;;;5053027;28;20210;-58
2023/06/24 09:40:10;;;;;;;3.15;2.85;;;27.90;56.00;;;;;;5053113;28;20229;-58
2023/06/24 09:42:37;;;;;;;4.63;3.15;;;27.90;56.20;;;;;;5052862;28;20228;-57
2023/06/24 09:45:06;;;;;;;3.13;2.83;;;27.80;56.50;;;;;;5053286;28;20202;-59
2023/06/24 09:47:34;;;;;;;3.80;2.60;;;27.80;55.90;;;;;;5052646;28;20241;-59
2023/06/24 09:50:01;;;;;;;3.10;2.67;;;27.80;54.50;;;;;;5052959;28;20248;-58
2023/06/24 09:52:29;;;;;;;3.08;2.78;;;27.70;54.60;;;;;;5052881;28;20212;-57
2023/06/24 09:54:56;;;;;;;2.88;2.55;;;27.70;54.50;;;;;;5052854;28;20210;-58
2023/06/24 09:57:30;;;;;;;4.10;2.75;;;27.80;54.60;;;;;;5052824;28;20205;-58
2023/06/24 09:59:58;;;;;;;4.90;2.33;;;27.80;55.50;;;;;;5052523;28;20713;-58
2023/06/24 10:02:25;;;;;;;4.07;3.45;;;27.90;54.70;;;;;;5052763;28;20225;-58
2023/06/24 10:04:55;;;;;;;3.03;2.42;;;27.90;55.00;;;;;;5052989;28;20236;-57
2023/06/24 10:07:21;;;;;;;2.90;2.40;;;27.90;53.60;;;;;;5052414;28;20210;-58
2023/06/24 10:09:48;;;;;;;3.38;2.78;;;28.00;54.00;;;;;;5052249;28;20256;-58
2023/06/24 10:12:15;;;;;;;5.85;2.72;;;28.30;54.00;;;;;;5052458;28;20247;-59
2023/06/24 10:14:42;;;;;;;4.50;2.10;;;28.70;54.00;;;;;;5051355;28;20220;-59
2023/06/24 10:17:09;;;;;;;4.50;2.70;;;29.10;53.00;;;;;;5052021;28;20202;-59
2023/06/24 10:19:40;;;;;;;5.10;2.55;;;29.40;52.20;;;;;;5052168;28;20609;-60
2023/06/24 10:22:11;;;;;;;2.90;2.55;;;29.40;51.00;;;;;;5052212;28;20205;-58
2023/06/24 10:24:41;;;;;;;3.30;2.40;;;29.10;52.00;;;;;;5052235;28;20236;-58
2023/06/24 10:27:09;;;;;;;2.75;2.25;;;28.90;52.40;;;;;;5052078;28;20210;-60
2023/06/24 10:29:37;;;;;;;2.95;2.50;;;28.90;52.80;;;;;;5051901;28;20206;-58
2023/06/24 10:32:05;;;;;;;3.65;2.45;;;28.90;52.40;;;;;;5052062;28;20289;-58
2023/06/24 10:34:40;;;;;;;3.50;2.85;;;29.20;52.70;;;;;;5051995;28;20212;-58
2023/06/24 10:37:12;;;;;;;3.45;2.33;;;29.50;52.80;;;;;;5051823;28;20295;-59
2023/06/24 10:39:50;;;;;;;2.90;2.60;;;29.90;51.70;;;;;;5050269;28;20443;-60
2023/06/24 10:42:34;;;;;;;2.47;2.20;;;30.20;51.70;;;;;;5031303;28;20583;-65
2023/06/24 10:45:02;;;;;;;3.03;2.65;;;30.50;50.80;;;;;;5031769;28;20293;-56
2023/06/24 10:47:30;;;;;;;3.78;2.83;;;30.50;50.50;;;;;;5031361;28;20214;-56
2023/06/24 10:49:57;;;;;;;4.50;2.50;;;30.00;50.90;;;;;;5038155;28;20307;-56
2023/06/24 10:52:25;;;;;;;3.58;2.58;;;29.50;51.90;;;;;;5071161;28;20240;-56
2023/06/24 10:54:53;;;;;;;3.28;2.60;;;29.30;52.70;;;;;;5071354;28;20255;-56
2023/06/24 10:57:24;;;;;;;4.78;2.67;;;29.50;51.80;;;;;;5066418;28;20346;-59
2023/06/24 10:59:53;;;;;;;4.40;2.97;;;29.30;52.40;;;;;;5051061;28;20226;-59
2023/06/24 11:02:21;;;;;;;3.20;2.90;;;29.40;51.90;;;;;;5051121;28;20240;-60
2023/06/24 11:04:49;;;;;;;4.38;2.78;;;29.50;51.70;;;;;;5051225;28;20213;-60
2023/06/24 11:07:19;;;;;;;2.80;2.50;;;29.60;51.70;;;;;;5050994;28;20205;-59
2023/06/24 11:09:51;;;;;;;4.45;3.15;;;29.50;52.20;;;;;;5051155;28;20301;-60
2023/06/24 11:12:19;;;;;;;4.15;2.60;;;29.30;52.50;;;;;;5050684;28;20206;-59
2023/06/24 11:14:46;;;;;;;4.05;2.55;;;29.40;52.90;;;;;;5051127;28;20290;-59
2023/06/24 11:17:12;;;;;;;2.83;2.50;;;29.50;53.10;;;;;;5050997;28;20209;-60
2023/06/24 11:19:40;;;;;;;4.70;2.63;;;29.50;51.30;;;;;;5051397;28;20558;-61
2023/06/24 11:22:08;;;;;;;2.90;2.40;;;29.50;52.60;;;;;;5051467;28;20207;-60
2023/06/24 11:24:35;;;;;;;2.45;2.22;;;29.30;52.50;;;;;;5051155;28;20253;-59
2023/06/24 11:27:05;;;;;;;2.40;2.20;;;29.20;52.60;;;;;;5053295;28;20205;-59
2023/06/24 11:29:34;;;;;;;3.40;2.42;;;29.20;52.40;;;;;;5055160;28;20665;-61
2023/06/24 11:32:02;;;;;;;2.70;2.50;;;29.20;52.20;;;;;;5054790;28;20704;-60
2023/06/24 11:34:29;;;;;;;2.58;2.38;;;29.30;52.10;;;;;;5055149;28;20209;-58
2023/06/24 11:36:55;;;;;;;3.08;2.40;;;29.50;51.10;;;;;;5054534;28;20228;-62
2023/06/24 11:39:23;;;;;;;3.60;2.58;;;29.50;51.30;;;;;;5055049;28;20201;-60
2023/06/24 11:41:50;;;;;;;3.97;2.60;;;29.70;51.00;;;;;;5054658;28;20625;-55
2023/06/24 11:44:21;;;;;;;5.07;2.33;;;29.90;50.30;;;;;;5054860;28;20222;-61
2023/06/24 11:46:48;;;;;;;3.20;2.90;;;30.00;49.80;;;;;;5054665;28;20308;-58
2023/06/24 11:49:15;;;;;;;2.67;2.38;;;30.10;49.90;;;;;;5054747;28;20216;-59
2023/06/24 11:51:48;;;;;;;2.55;2.35;;;30.30;49.70;;;;;;5054314;28;20225;-61
2023/06/24 11:54:17;;;;;;;3.80;2.55;;;30.40;50.10;;;;;;5054763;28;20274;-58
2023/06/24 11:56:44;;;;;;;3.25;2.30;;;30.60;49.30;;;;;;5054279;28;20241;-56
2023/06/24 11:59:20;;;;;;;2.70;2.50;;;30.70;49.20;;;;;;5054110;28;20674;-57
2023/06/24 12:01:53;;;;;;;2.63;2.40;;;30.70;49.30;;;;;;5054506;28;20227;-57
2023/06/24 12:04:19;;;;;;;7.43;5.22;;;30.50;49.10;;;;;;5054487;28;20233;-56
2023/06/24 12:06:46;;;;;;;2.60;2.40;;;30.40;49.60;;;;;;5054449;28;20228;-57
2023/06/24 12:09:13;;;;;;;4.70;2.55;;;30.40;50.00;;;;;;5054286;28;20212;-60
2023/06/24 12:11:40;;;;;;;2.97;2.38;;;30.30;49.60;;;;;;5053081;28;20769;-59
2023/06/24 12:14:07;;;;;;;2.40;2.20;;;30.30;49.40;;;;;;5054442;28;20206;-59
2023/06/24 12:16:35;;;;;;;3.70;2.60;;;30.30;49.40;;;;;;5053937;28;20240;-61
2023/06/24 12:19:02;;;;;;;2.47;2.10;;;30.10;49.60;;;;;;5054586;28;20228;-59
2023/06/24 12:21:28;;;;;;;2.85;2.42;;;30.00;49.80;;;;;;5054045;28;20232;-57
2023/06/24 12:23:55;;;;;;;2.53;2.33;;;30.10;49.10;;;;;;5053638;28;20229;-59
2023/06/24 12:26:22;;;;;;;3.03;2.53;;;30.10;48.90;;;;;;5058227;28;20631;-57
2023/06/24 12:28:48;;;;;;;2.70;2.35;;;30.20;48.80;;;;;;5045661;28;20209;-60
2023/06/24 12:31:15;;;;;;;4.45;2.60;;;30.20;48.90;;;;;;5067772;28;20248;-58
2023/06/24 12:33:43;;;;;;;4.07;2.25;;;30.30;49.10;;;;;;5073918;28;20395;-59
2023/06/24 12:36:10;;;;;;;3.08;2.55;;;30.60;48.20;;;;;;5073198;28;20209;-58
2023/06/24 12:38:36;;;;;;;2.58;2.38;;;30.80;48.30;;;;;;5072408;28;20546;-58
2023/06/24 12:41:03;;;;;;;2.80;2.33;;;30.90;48.20;;;;;;5073960;28;20224;-58
2023/06/24 12:43:30;;;;;;;3.22;2.53;;;31.20;48.50;;;;;;5073633;28;20708;-59
2023/06/24 12:45:57;;;;;;;2.83;2.30;;;31.40;48.00;;;;;;5073411;28;20672;-59
2023/06/24 12:48:23;;;;;;;4.13;2.63;;;31.50;47.20;;;;;;5073423;28;20607;-61
2023/06/24 12:50:53;;;;;;;3.10;2.38;;;31.30;47.60;;;;;;5066021;28;20300;-60